Gaschem Orca — D5NS8 — position and weather

sailwx.info

Track history (hours):
 
Tides and Currents Weather Stations Pressure Air Temp Water Temp Dewpoint Dewpoint Depression Visibility Wind Speed Wind Dir Waves Ship Positions

Gaschem Orca

Last reported at 2018-Jun-22 11:19 UTC. Time now 2018-Jun-24 01:37 UTC.
Position N 26°13' W 079°12'.

Length 189 m; draft 9.7 m.

Type: Ship. MMSI: 636018002.

Date/timePositionNaut miles runAvg speedWind from/ knotsBaromVisibWave heightAir tempDewpointWater temp
2018-Jun-22 11:19N 26°13' W 079°12'618.3
2018-Jun-22 11:00N 26°10' W 079°18'1818.4
2018-Jun-22 10:00N 25°53' W 079°25'  
2018-Jun-19 21:13N 28°44' W 094°25'416.5
2018-Jun-19 20:58N 28°48' W 094°25'1616.3
2018-Jun-19 19:59N 29°04' W 094°26'714.2
2018-Jun-19 19:30N 29°10' W 094°29'815.6
2018-Jun-19 19:00N 29°16' W 094°35'713.4
2018-Jun-19 18:30N 29°20' W 094°41'713.9
2018-Jun-19 18:00N 29°22' W 094°48'713.3
2018-Jun-19 17:30N 29°29' W 094°51'613.2
2018-Jun-19 17:00N 29°34' W 094°55'612.0
2018-Jun-19 16:30N 29°40' W 094°58'2 0.1
2018-Jun-17 18:32N 29°41' W 095°01'0 0.0
2018-Jun-17 18:11N 29°41' W 095°01'0 0.0
2018-Jun-17 17:56N 29°41' W 095°01'0 0.0
2018-Jun-17 17:26N 29°41' W 095°01'0 0.0
2018-Jun-17 15:14N 29°41' W 095°01'0 0.0
2018-Jun-17 14:50N 29°41' W 095°01'0 0.3
2018-Jun-17 14:30N 29°41' W 095°00'1 2.7
2018-Jun-17 14:00N 29°41' W 094°59'5 9.2
2018-Jun-17 13:30N 29°36' W 094°57'611.0
2018-Jun-17 12:59N 29°32' W 094°54'2111.2
2018-Jun-17 11:09N 29°18' W 094°36'2 0.3
2018-Jun-17 01:45N 29°20' W 094°34'0 0.1
2018-Jun-17 01:24N 29°20' W 094°34'0 0.0
2018-Jun-17 00:51N 29°20' W 094°34'0 0.0
2018-Jun-17 00:30N 29°20' W 094°34'0 0.0
2018-Jun-17 00:00N 29°20' W 094°34'0 0.0
2018-Jun-16 23:06N 29°20' W 094°34'0 0.2
2018-Jun-16 22:51N 29°20' W 094°34'0 0.0
2018-Jun-16 20:24N 29°20' W 094°34'0 0.0
2018-Jun-16 16:48N 29°20' W 094°34'0 0.0
2018-Jun-16 11:22N 29°20' W 094°34'  
2018-Jun-13 00:17N 25°22' W 079°34'310.6
2018-Jun-12 23:58N 25°26' W 079°34'510.5
2018-Jun-12 23:30N 25°30' W 079°32'510.5
2018-Jun-12 23:00N 25°35' W 079°31'510.4
2018-Jun-12 22:30N 25°40' W 079°30'510.2
2018-Jun-12 22:00N 25°45' W 079°29'610.2
2018-Jun-12 21:28N 25°51' W 079°29'4 9.1
2018-Jun-12 21:00N 25°55' W 079°27'1710.2
2018-Jun-12 19:23N 26°11' W 079°21'511.4
2018-Jun-12 18:59N 26°14' W 079°18'  
Track history (hours):
 
Tides and Currents Weather Stations Pressure Air Temp Water Temp Dewpoint Dewpoint Depression Visibility Wind Speed Wind Dir Waves Ship Positions

Gaschem Orca

Last reported at 2018-Jun-22 11:19 UTC. Time now 2018-Jun-24 01:37 UTC.
Position N 26°13' W 079°12'.

Length 189 m; draft 9.7 m.

Type: Ship. MMSI: 636018002.

Date/timePositionNaut miles runAvg speedWind from/ knotsBaromVisibWave heightAir tempDewpointWater temp
2018-Jun-22 11:19N 26°13' W 079°12'618.3
2018-Jun-22 11:00N 26°10' W 079°18'1818.4
2018-Jun-22 10:00N 25°53' W 079°25'  
2018-Jun-19 21:13N 28°44' W 094°25'416.5
2018-Jun-19 20:58N 28°48' W 094°25'1616.3
2018-Jun-19 19:59N 29°04' W 094°26'714.2
2018-Jun-19 19:30N 29°10' W 094°29'815.6
2018-Jun-19 19:00N 29°16' W 094°35'713.4
2018-Jun-19 18:30N 29°20' W 094°41'713.9
2018-Jun-19 18:00N 29°22' W 094°48'713.3
2018-Jun-19 17:30N 29°29' W 094°51'613.2
2018-Jun-19 17:00N 29°34' W 094°55'612.0
2018-Jun-19 16:30N 29°40' W 094°58'2 0.1
2018-Jun-17 18:32N 29°41' W 095°01'0 0.0
2018-Jun-17 18:11N 29°41' W 095°01'0 0.0
2018-Jun-17 17:56N 29°41' W 095°01'0 0.0
2018-Jun-17 17:26N 29°41' W 095°01'0 0.0
2018-Jun-17 15:14N 29°41' W 095°01'0 0.0
2018-Jun-17 14:50N 29°41' W 095°01'0 0.3
2018-Jun-17 14:30N 29°41' W 095°00'1 2.7
2018-Jun-17 14:00N 29°41' W 094°59'5 9.2
2018-Jun-17 13:30N 29°36' W 094°57'611.0
2018-Jun-17 12:59N 29°32' W 094°54'2111.2
2018-Jun-17 11:09N 29°18' W 094°36'2 0.3
2018-Jun-17 01:45N 29°20' W 094°34'0 0.1
2018-Jun-17 01:24N 29°20' W 094°34'0 0.0
2018-Jun-17 00:51N 29°20' W 094°34'0 0.0
2018-Jun-17 00:30N 29°20' W 094°34'0 0.0
2018-Jun-17 00:00N 29°20' W 094°34'0 0.0
2018-Jun-16 23:06N 29°20' W 094°34'0 0.2
2018-Jun-16 22:51N 29°20' W 094°34'0 0.0
2018-Jun-16 20:24N 29°20' W 094°34'0 0.0
2018-Jun-16 16:48N 29°20' W 094°34'0 0.0
2018-Jun-16 11:22N 29°20' W 094°34'  
2018-Jun-13 00:17N 25°22' W 079°34'310.6
2018-Jun-12 23:58N 25°26' W 079°34'510.5
2018-Jun-12 23:30N 25°30' W 079°32'510.5
2018-Jun-12 23:00N 25°35' W 079°31'510.4
2018-Jun-12 22:30N 25°40' W 079°30'510.2
2018-Jun-12 22:00N 25°45' W 079°29'610.2
2018-Jun-12 21:28N 25°51' W 079°29'4 9.1
2018-Jun-12 21:00N 25°55' W 079°27'1710.2
2018-Jun-12 19:23N 26°11' W 079°21'511.4
2018-Jun-12 18:59N 26°14' W 079°18'  

Dump ship's entire track history